Time;durP1;ratioP1;P1;durP2;ratioP2;P2;SDS_P1;SDS_P2;PMS_P1;PMS_P2;Temp;Humidity;BMP_temperature;BMP_pressure;BME280_temperature;BME280_humidity;BME280_pressure;Samples;Min_cycle;Max_cycle;Signal;HPM_P1;HPM_P2
2022/07/20 00:01:52;;;;;;;9.50;5.50;;;;;;;21.30;59.62;100825.73;104202;1279;94434;-69
2022/07/20 00:04:20;;;;;;;8.80;5.30;;;;;;;21.27;59.97;100825.79;104162;1279;94702;-72
2022/07/20 00:06:48;;;;;;;9.00;5.40;;;;;;;21.25;59.66;100825.34;104039;1278;138361;-71
2022/07/20 00:12:04;;;;;;;9.60;5.60;;;;;;;21.15;59.85;100821.42;104053;1279;139087;-72
2022/07/20 00:14:32;;;;;;;9.00;5.30;;;;;;;21.13;60.35;100821.05;104181;1278;94332;-71
2022/07/20 00:17:00;;;;;;;8.90;5.10;;;;;;;21.07;60.52;100821.07;104054;1278;138407;-71
2022/07/20 00:19:28;;;;;;;10.40;5.50;;;;;;;21.02;60.76;100819.92;104184;1279;108117;-72
2022/07/20 00:21:56;;;;;;;10.20;5.60;;;;;;;20.97;60.28;100819.90;104159;1279;100121;-71
2022/07/20 00:24:24;;;;;;;8.10;5.30;;;;;;;20.94;60.48;100824.61;104038;1278;139663;-72
2022/07/20 00:26:51;;;;;;;9.70;5.40;;;;;;;20.93;60.65;100831.71;104126;1279;94644;-71
2022/07/20 00:29:19;;;;;;;9.30;5.40;;;;;;;20.88;61.03;100826.93;104024;1279;138249;-71
2022/07/20 00:31:47;;;;;;;9.70;5.70;;;;;;;20.80;61.18;100831.77;104167;1279;108648;-72
2022/07/20 00:34:15;;;;;;;10.10;5.70;;;;;;;20.82;60.93;100836.70;104205;1279;99631;-72
2022/07/20 00:36:43;;;;;;;10.30;5.90;;;;;;;20.77;61.03;100835.39;104004;1279;138684;-72
2022/07/20 00:39:11;;;;;;;9.10;5.50;;;;;;;20.72;61.43;100839.31;104134;1279;94711;-71
2022/07/20 00:41:39;;;;;;;8.90;5.40;;;;;;;20.67;61.40;100837.08;104034;1277;138563;-71
2022/07/20 00:44:09;;;;;;;9.70;6.00;;;;;;;20.64;61.99;100837.02;104134;1279;108384;-69
2022/07/20 00:46:40;;;;;;;10.80;5.90;;;;;;;20.61;61.99;100837.63;104380;1279;138854;-71
2022/07/20 00:49:10;;;;;;;9.80;5.60;;;;;;;20.55;61.85;100843.37;104260;1279;109219;-72
2022/07/20 00:51:40;;;;;;;9.60;6.00;;;;;;;20.51;61.98;100844.66;104139;1278;94530;-72
2022/07/20 00:54:09;;;;;;;9.50;5.70;;;;;;;20.52;61.92;100847.52;104294;1279;138134;-71
2022/07/20 00:56:38;;;;;;;9.30;5.80;;;;;;;20.50;62.13;100844.05;104127;1279;108627;-71
2022/07/20 00:59:09;;;;;;;9.20;5.20;;;;;;;20.45;62.27;100848.64;104096;1279;138103;-71
2022/07/20 01:01:39;;;;;;;9.90;6.00;;;;;;;20.38;62.27;100846.57;104287;1278;110581;-71
2022/07/20 01:04:07;;;;;;;10.30;6.00;;;;;;;20.34;62.58;100850.61;104704;1279;94414;-71
2022/07/20 01:06:36;;;;;;;11.70;6.20;;;;;;;20.31;62.55;100852.53;104057;1278;139093;-72
2022/07/20 01:09:04;;;;;;;9.80;6.00;;;;;;;20.29;62.28;100853.43;104158;1279;109028;-72
2022/07/20 01:11:33;;;;;;;9.80;5.90;;;;;;;20.32;62.28;100857.77;104078;1279;138537;-69
2022/07/20 01:14:04;;;;;;;11.30;6.70;;;;;;;20.31;62.01;100859.09;104139;1279;108862;-72
2022/07/20 01:16:32;;;;;;;9.70;6.00;;;;;;;20.28;62.63;100854.77;104111;1279;94339;-72
2022/07/20 01:19:00;;;;;;;11.00;6.40;;;;;;;20.21;62.92;100854.77;104183;1279;94478;-71
2022/07/20 01:21:28;;;;;;;10.80;6.50;;;;;;;20.20;62.77;100857.00;104204;1279;109095;-72
2022/07/20 01:23:56;;;;;;;10.40;6.50;;;;;;;20.16;62.67;100855.23;104117;1278;138380;-71
2022/07/20 01:26:25;;;;;;;12.60;6.80;;;;;;;20.13;62.94;100857.81;104154;1279;109808;-71
2022/07/20 01:28:53;;;;;;;10.70;6.50;;;;;;;20.11;62.70;100861.85;104092;1279;139182;-71
2022/07/20 01:31:22;;;;;;;11.10;6.80;;;;;;;20.12;62.55;100856.06;104180;1279;94435;-71
2022/07/20 01:33:50;;;;;;;12.00;6.70;;;;;;;20.11;62.70;100861.69;104155;1279;108351;-71
2022/07/20 01:36:18;;;;;;;11.70;7.00;;;;;;;20.10;62.59;100861.78;104035;1279;138920;-71
2022/07/20 01:38:46;;;;;;;11.60;7.00;;;;;;;20.08;62.46;100866.73;104150;1278;109738;-71
2022/07/20 01:41:15;;;;;;;11.50;6.40;;;;;;;20.03;62.71;100865.40;103987;1278;139269;-72
2022/07/20 01:43:43;;;;;;;10.50;6.30;;;;;;;20.00;63.06;100869.73;104190;1279;95245;-72
2022/07/20 01:46:11;;;;;;;10.30;6.40;;;;;;;19.93;63.44;100866.88;104080;1279;108252;-72
2022/07/20 01:48:39;;;;;;;12.90;7.10;;;;;;;19.84;63.73;100864.67;104099;1279;138390;-71
2022/07/20 01:51:07;;;;;;;11.80;6.80;;;;;;;19.76;63.93;100867.44;104125;1279;108827;-71
2022/07/20 01:53:35;;;;;;;10.80;6.70;;;;;;;19.74;63.72;100867.05;104107;1278;138968;-72
2022/07/20 01:56:03;;;;;;;12.80;6.90;;;;;;;19.78;63.61;100870.79;104135;1279;94342;-71
2022/07/20 01:58:31;;;;;;;11.80;6.80;;;;;;;19.76;63.68;100868.55;104146;1279;108393;-71
2022/07/20 02:00:59;;;;;;;12.50;6.60;;;;;;;19.73;63.57;100868.34;104143;1279;99177;-71
2022/07/20 02:03:27;;;;;;;11.30;6.10;;;;;;;19.69;63.67;100865.31;104163;1279;108861;-70
2022/07/20 02:05:56;;;;;;;11.10;6.50;;;;;;;19.63;64.04;100858.86;104006;1279;139134;-71
2022/07/20 02:08:25;;;;;;;12.00;6.60;;;;;;;19.60;64.29;100860.10;104203;1279;94758;-70
2022/07/20 02:10:53;;;;;;;10.90;6.70;;;;;;;19.60;64.20;100862.08;104052;1279;138644;-71
2022/07/20 02:13:21;;;;;;;13.10;6.60;;;;;;;19.56;64.18;100857.06;104212;1278;99426;-72
2022/07/20 02:18:35;;;;;;;11.90;6.30;;;;;;;19.53;64.05;100857.25;104034;1279;138997;-72
2022/07/20 02:21:03;;;;;;;10.20;6.00;;;;;;;19.55;63.99;100857.13;104212;1279;94593;-73
2022/07/20 02:23:31;;;;;;;11.90;6.20;;;;;;;19.60;63.93;100860.07;104054;1279;138565;-72
2022/07/20 02:25:59;;;;;;;10.30;6.20;;;;;;;19.60;63.78;100859.58;104191;1279;99431;-72
2022/07/20 02:28:27;;;;;;;10.90;6.20;;;;;;;19.55;63.97;100861.98;104159;1279;108907;-71
2022/07/20 02:30:55;;;;;;;10.10;6.20;;;;;;;19.53;64.08;100866.56;104057;1278;139233;-71
2022/07/20 02:33:23;;;;;;;10.80;6.00;;;;;;;19.51;64.28;100871.58;104157;1279;94456;-72
2022/07/20 02:35:51;;;;;;;10.10;6.50;;;;;;;19.49;64.29;100871.16;104047;1279;138721;-72
2022/07/20 02:38:19;;;;;;;11.00;6.40;;;;;;;19.45;64.32;100874.64;104209;1279;99381;-71
2022/07/20 02:40:47;;;;;;;12.30;6.60;;;;;;;19.41;64.39;100875.36;104098;1279;139396;-73
2022/07/20 02:43:15;;;;;;;10.30;5.90;;;;;;;19.40;64.33;100877.77;104233;1279;94368;-72
2022/07/20 02:45:43;;;;;;;11.00;6.50;;;;;;;19.41;64.31;100880.62;104241;1279;94287;-71
2022/07/20 02:48:11;;;;;;;11.10;6.20;;;;;;;19.37;64.36;100878.66;104096;1279;138142;-72
2022/07/20 02:50:41;;;;;;;11.10;5.90;;;;;;;19.32;64.49;100881.77;104286;1278;98906;-71
2022/07/20 02:53:10;;;;;;;11.60;6.30;;;;;;;19.30;64.87;100884.09;104141;1279;138937;-71
2022/07/20 02:55:40;;;;;;;10.40;5.90;;;;;;;19.28;65.08;100887.98;104786;1279;94507;-72
2022/07/20 02:58:10;;;;;;;11.90;6.20;;;;;;;19.30;64.93;100891.09;104221;1279;94745;-72
2022/07/20 03:00:40;;;;;;;10.80;5.80;;;;;;;19.29;64.41;100892.06;104120;1279;138151;-72
2022/07/20 03:03:09;;;;;;;10.30;6.10;;;;;;;19.28;64.94;100895.73;104222;1279;99560;-72
2022/07/20 03:05:37;;;;;;;11.60;6.50;;;;;;;19.30;64.65;100900.98;104135;1279;138375;-73
2022/07/20 03:08:07;;;;;;;11.70;6.10;;;;;;;19.30;64.69;100905.50;104220;1279;94865;-73
2022/07/20 03:10:35;;;;;;;10.10;6.30;;;;;;;19.30;64.86;100909.66;104214;1278;138394;-71
2022/07/20 03:13:03;;;;;;;9.60;5.80;;;;;;;19.30;64.77;100908.56;104262;1279;108393;-72
2022/07/20 03:15:31;;;;;;;9.30;6.10;;;;;;;19.32;64.67;100908.48;104323;1279;99437;-72
2022/07/20 03:17:59;;;;;;;9.70;6.00;;;;;;;19.33;64.78;100906.61;104119;1279;138435;-72
2022/07/20 03:20:32;;;;;;;10.00;6.20;;;;;;;19.33;64.94;100908.06;104238;1279;94628;-72
2022/07/20 03:23:02;;;;;;;9.70;6.00;;;;;;;19.32;64.94;100909.70;104429;1278;138410;-71
2022/07/20 03:25:30;;;;;;;10.60;6.10;;;;;;;19.36;65.41;100915.23;104263;1279;108433;-72
2022/07/20 03:27:59;;;;;;;9.60;5.70;;;;;;;19.39;65.27;100914.94;104200;1279;99454;-72
2022/07/20 03:30:28;;;;;;;9.70;5.80;;;;;;;19.42;65.28;100903.97;104097;1279;138523;-71
2022/07/20 03:32:56;;;;;;;9.50;6.00;;;;;;;19.43;65.31;100907.53;104215;1279;94350;-72
2022/07/20 03:35:24;;;;;;;9.70;6.00;;;;;;;19.44;65.26;100909.79;104053;1279;138565;-72
2022/07/20 03:37:52;;;;;;;10.40;5.90;;;;;;;19.39;65.24;100910.24;104228;1279;108547;-72
2022/07/20 03:40:21;;;;;;;9.40;5.70;;;;;;;19.36;65.24;100910.39;104265;1278;99397;-71
2022/07/20 03:42:49;;;;;;;11.20;6.10;;;;;;;19.38;65.45;100907.98;104113;1279;137896;-72
2022/07/20 03:45:17;;;;;;;11.10;5.40;;;;;;;19.44;65.85;100910.33;104273;1279;95513;-72
2022/07/20 03:47:54;;;;;;;9.70;6.00;;;;;;;19.51;65.81;100908.67;104114;1279;138837;-72
2022/07/20 03:50:23;;;;;;;9.80;5.80;;;;;;;19.58;65.40;100912.40;104886;1278;108041;-72
2022/07/20 03:52:51;;;;;;;10.10;6.00;;;;;;;19.68;64.97;100915.65;104103;1279;138444;-72
2022/07/20 03:55:19;;;;;;;9.70;6.00;;;;;;;19.73;65.57;100915.58;104294;1277;107797;-72
2022/07/20 03:57:47;;;;;;;9.80;5.50;;;;;;;19.71;66.35;100915.86;104208;1278;94400;-72
2022/07/20 04:00:16;;;;;;;9.60;5.70;;;;;;;19.74;65.88;100918.95;104137;1278;139118;-72
2022/07/20 04:02:44;;;;;;;10.50;5.90;;;;;;;19.80;65.74;100921.14;104261;1279;107715;-71
2022/07/20 04:05:14;;;;;;;10.70;5.80;;;;;;;19.83;65.70;100923.46;104172;1278;139916;-72
2022/07/20 04:07:42;;;;;;;9.70;5.80;;;;;;;19.88;65.47;100926.96;104220;1278;108805;-71
2022/07/20 04:10:10;;;;;;;9.20;5.40;;;;;;;19.94;65.04;100929.75;104364;1277;94305;-71
2022/07/20 04:12:39;;;;;;;10.10;5.70;;;;;;;19.99;65.02;100933.40;104248;1279;139694;-72
2022/07/20 04:15:09;;;;;;;9.80;5.60;;;;;;;20.05;64.86;100933.22;104251;1279;108705;-72
2022/07/20 04:17:41;;;;;;;10.90;6.20;;;;;;;20.11;65.00;100937.05;104159;1279;138549;-70
2022/07/20 04:20:09;;;;;;;10.10;5.70;;;;;;;20.14;63.97;100939.21;104252;1279;108338;-72
2022/07/20 04:22:37;;;;;;;10.30;5.60;;;;;;;20.14;64.43;100941.39;104166;1279;139444;-72
2022/07/20 04:25:06;;;;;;;11.20;6.00;;;;;;;20.18;64.84;100945.46;104269;1279;94282;-72
2022/07/20 04:27:34;;;;;;;9.00;5.20;;;;;;;20.27;64.61;100942.83;104245;1279;108480;-72
2022/07/20 04:30:03;;;;;;;9.20;5.90;;;;;;;20.33;64.62;100942.43;104113;1279;138788;-72
2022/07/20 04:32:31;;;;;;;13.10;5.80;;;;;;;20.32;64.69;100945.56;104164;1279;108790;-73
2022/07/20 04:34:59;;;;;;;12.00;6.00;;;;;;;20.32;63.78;100940.50;104075;1279;138768;-73
2022/07/20 04:37:27;;;;;;;10.70;6.00;;;;;;;20.38;63.68;100945.56;104216;1279;94640;-73
2022/07/20 04:39:55;;;;;;;11.30;6.20;;;;;;;20.43;64.20;100946.57;104184;1277;108343;-72
2022/07/20 04:42:22;;;;;;;11.40;5.90;;;;;;;20.44;63.99;100945.58;104104;1279;138769;-72
2022/07/20 04:44:50;;;;;;;14.00;5.60;;;;;;;20.50;63.27;100946.70;104180;1277;109103;-72
2022/07/20 04:47:18;;;;;;;13.00;6.00;;;;;;;20.59;63.53;100946.53;104032;1279;139556;-72
2022/07/20 04:49:46;;;;;;;14.30;5.80;;;;;;;20.68;63.10;100943.48;104198;1279;94797;-73
2022/07/20 04:52:15;;;;;;;15.90;6.20;;;;;;;20.72;62.53;100945.05;104173;1278;108364;-73
2022/07/20 04:54:43;;;;;;;9.40;5.60;;;;;;;20.76;62.63;100940.86;104021;1279;138199;-73
2022/07/20 04:57:11;;;;;;;11.80;6.00;;;;;;;20.86;62.00;100942.77;104121;1279;108766;-72
2022/07/20 04:59:39;;;;;;;11.80;6.30;;;;;;;20.97;61.39;100944.26;104030;1279;139032;-71
2022/07/20 05:02:07;;;;;;;9.20;5.50;;;;;;;21.05;61.33;100941.59;104139;1278;94756;-73
2022/07/20 05:04:35;;;;;;;11.80;5.90;;;;;;;21.16;61.16;100940.92;104059;1279;138388;-72
2022/07/20 05:07:03;;;;;;;10.40;5.80;;;;;;;21.29;60.39;100943.04;104301;1279;99477;-72
2022/07/20 05:09:31;;;;;;;10.20;6.00;;;;;;;21.37;60.51;100943.38;104138;1278;109173;-72
2022/07/20 05:11:59;;;;;;;10.90;5.90;;;;;;;21.45;60.01;100941.81;104028;1279;138477;-72
2022/07/20 05:14:27;;;;;;;15.20;10.60;;;;;;;21.49;60.08;100938.51;104219;1279;94382;-73
2022/07/20 05:16:55;;;;;;;35.00;25.70;;;;;;;21.54;60.23;100935.33;104148;1278;139077;-72
2022/07/20 05:19:23;;;;;;;19.80;12.30;;;;;;;21.61;60.08;100934.50;104239;1279;98780;-72
2022/07/20 05:21:50;;;;;;;16.40;6.70;;;;;;;21.67;60.12;100933.45;104206;1279;108779;-74
2022/07/20 05:24:18;;;;;;;10.90;6.00;;;;;;;21.71;59.75;100935.33;104131;1278;138592;-72
2022/07/20 05:26:46;;;;;;;14.30;6.10;;;;;;;21.75;59.26;100940.29;104208;1278;94413;-73
2022/07/20 05:29:14;;;;;;;11.20;5.90;;;;;;;21.87;58.95;100946.42;104062;1279;138419;-73
2022/07/20 05:31:42;;;;;;;13.30;5.80;;;;;;;21.96;58.11;100947.98;104165;1279;99815;-72
2022/07/20 05:34:10;;;;;;;14.90;6.00;;;;;;;21.99;57.50;100951.77;104172;1279;108172;-73
2022/07/20 05:36:38;;;;;;;13.20;6.10;;;;;;;22.08;57.79;100955.73;104065;1279;138376;-73
2022/07/20 05:39:09;;;;;;;12.10;5.50;;;;;;;22.19;57.55;100955.35;104217;1279;94630;-73
2022/07/20 05:41:39;;;;;;;12.10;5.90;;;;;;;22.25;58.01;100954.59;104081;1279;138740;-73
2022/07/20 05:44:07;;;;;;;12.60;5.90;;;;;;;22.27;57.72;100954.10;104147;1279;99383;-71
2022/07/20 05:46:35;;;;;;;10.80;5.80;;;;;;;22.36;57.54;100957.15;104038;1279;138407;-72
2022/07/20 05:49:02;;;;;;;10.60;6.00;;;;;;;22.46;57.06;100957.23;104163;1279;94361;-72
2022/07/20 05:51:30;;;;;;;13.20;6.40;;;;;;;22.49;57.86;100964.23;104208;1278;94754;-72
2022/07/20 05:53:59;;;;;;;11.50;5.50;;;;;;;22.46;57.24;100960.48;104110;1278;138410;-71
2022/07/20 05:56:28;;;;;;;11.00;5.10;;;;;;;22.48;56.16;100958.70;104174;1278;99447;-71
2022/07/20 05:58:56;;;;;;;10.10;5.10;;;;;;;22.54;55.35;100958.48;104067;1279;138375;-71
2022/07/20 06:01:24;;;;;;;9.90;5.10;;;;;;;22.65;54.74;100963.20;104226;1279;94314;-72
2022/07/20 06:03:52;;;;;;;9.80;5.00;;;;;;;22.72;55.25;100961.59;104159;1279;96580;-72
2022/07/20 06:06:20;;;;;;;9.30;5.10;;;;;;;22.75;54.36;100964.31;104067;1279;138346;-72
2022/07/20 06:08:48;;;;;;;11.60;4.90;;;;;;;22.81;54.92;100966.83;104158;1279;99949;-72
2022/07/20 06:11:36;;;;;;;9.30;4.70;;;;;;;22.87;54.40;100967.29;104035;1278;138757;-73
2022/07/20 06:14:04;;;;;;;9.90;5.00;;;;;;;22.93;53.77;100969.61;104235;1278;95437;-71
2022/07/20 06:16:32;;;;;;;11.70;4.80;;;;;;;23.00;53.35;100972.03;104284;1279;94120;-72
2022/07/20 06:19:00;;;;;;;10.30;4.70;;;;;;;23.06;52.53;100974.34;104151;1279;108353;-72
2022/07/20 06:21:28;;;;;;;11.30;5.20;;;;;;;23.09;52.49;100975.02;104155;1279;99609;-73
2022/07/20 06:23:56;;;;;;;12.20;5.00;;;;;;;23.13;51.99;100972.77;104057;1278;138303;-72
2022/07/20 06:26:24;;;;;;;12.70;5.50;;;;;;;23.13;51.36;100977.83;104170;1278;95823;-72
2022/07/20 06:28:52;;;;;;;10.00;5.00;;;;;;;23.16;51.82;100976.91;104168;1279;138346;-72
2022/07/20 06:31:21;;;;;;;11.20;4.80;;;;;;;23.21;52.66;100979.45;104112;1279;107370;-72
2022/07/20 06:34:08;;;;;;;11.90;5.10;;;;;;;23.24;52.89;100983.59;104161;1279;99996;-72
2022/07/20 06:36:36;;;;;;;15.10;4.80;;;;;;;23.27;51.47;100986.83;103998;1279;138186;-72
2022/07/20 06:39:05;;;;;;;11.50;5.30;;;;;;;23.32;51.28;100984.82;104110;1279;94364;-72
2022/07/20 06:41:32;;;;;;;13.80;4.60;;;;;;;23.36;51.35;100983.64;104153;1279;138115;-72
2022/07/20 06:44:06;;;;;;;12.90;5.10;;;;;;;23.41;50.86;100979.71;104183;1279;108924;-72
2022/07/20 06:46:34;;;;;;;9.80;4.50;;;;;;;23.48;51.75;100981.38;104083;1279;138828;-71
2022/07/20 06:49:02;;;;;;;11.50;4.60;;;;;;;23.52;50.55;100979.44;104148;1278;109645;-72
2022/07/20 06:51:29;;;;;;;9.90;4.70;;;;;;;23.54;50.51;100981.27;104122;1279;94326;-72
2022/07/20 06:53:58;;;;;;;10.20;4.70;;;;;;;23.59;48.84;100976.61;103977;1278;137943;-72
2022/07/20 06:56:26;;;;;;;10.60;4.60;;;;;;;23.65;48.75;100975.66;104219;1279;108439;-72
2022/07/20 06:58:54;;;;;;;9.60;4.10;;;;;;;23.72;48.37;100979.49;104036;1279;138410;-72
2022/07/20 07:01:23;;;;;;;10.50;4.10;;;;;;;23.79;48.19;100976.80;104151;1279;108812;-72
2022/07/20 07:03:50;;;;;;;9.40;3.80;;;;;;;23.84;48.26;100976.04;104029;1279;95104;-72
2022/07/20 07:06:18;;;;;;;8.30;3.80;;;;;;;23.87;47.77;100973.48;104021;1279;137929;-72
2022/07/20 07:08:46;;;;;;;8.50;3.90;;;;;;;23.93;47.12;100977.80;104131;1279;108665;-72
2022/07/20 07:11:15;;;;;;;8.30;3.70;;;;;;;24.00;47.38;100979.24;104196;1279;138876;-72
2022/07/20 07:13:43;;;;;;;8.80;3.60;;;;;;;24.06;46.54;100976.48;104236;1279;110163;-72
2022/07/20 07:16:11;;;;;;;6.80;3.90;;;;;;;24.16;45.85;100978.31;104266;1279;94513;-72
2022/07/20 07:18:39;;;;;;;9.50;4.00;;;;;;;24.25;45.61;100979.47;104029;1279;141084;-72
2022/07/20 07:21:07;;;;;;;9.30;4.00;;;;;;;24.33;46.63;100980.11;104227;1279;107142;-72
2022/07/20 07:23:35;;;;;;;11.60;4.10;;;;;;;24.44;45.86;100980.52;104174;1279;138507;-72
2022/07/20 07:26:03;;;;;;;9.50;4.30;;;;;;;24.50;44.95;100975.92;104238;1279;108739;-71
2022/07/20 07:28:31;;;;;;;9.30;3.90;;;;;;;24.55;44.22;100972.25;104245;1279;94460;-72
2022/07/20 07:30:59;;;;;;;8.80;4.10;;;;;;;24.58;44.73;100970.63;104305;1278;94802;-72
2022/07/20 07:33:27;;;;;;;9.70;4.10;;;;;;;24.64;45.46;100972.71;104286;1279;108425;-73
2022/07/20 07:35:55;;;;;;;9.70;4.10;;;;;;;24.72;45.61;100975.71;104144;1279;138185;-72
2022/07/20 07:38:23;;;;;;;10.70;4.20;;;;;;;24.80;45.31;100980.36;104208;1279;108053;-70
2022/07/20 07:40:51;;;;;;;9.20;3.70;;;;;;;24.88;45.69;100977.23;104139;1279;138954;-71
2022/07/20 07:43:19;;;;;;;9.00;4.40;;;;;;;24.94;45.31;100979.85;104226;1279;94450;-72
2022/07/20 07:45:47;;;;;;;9.80;4.20;;;;;;;24.97;45.18;100975.80;104250;1279;108428;-73
2022/07/20 07:48:16;;;;;;;9.80;4.00;;;;;;;25.03;44.73;100978.81;104165;1279;138431;-73
2022/07/20 07:50:45;;;;;;;9.10;4.50;;;;;;;25.11;44.34;100973.80;104242;1279;107749;-73
2022/07/20 07:53:13;;;;;;;12.60;4.10;;;;;;;25.20;44.78;100974.35;104533;1278;138848;-72
2022/07/20 07:55:41;;;;;;;11.10;4.30;;;;;;;25.26;44.13;100975.02;104233;1279;95022;-72
2022/07/20 07:58:11;;;;;;;9.50;3.70;;;;;;;25.31;43.45;100974.04;104368;1278;108264;-71
2022/07/20 08:00:41;;;;;;;10.20;3.80;;;;;;;25.39;42.70;100972.75;104317;1279;138201;-73
2022/07/20 08:03:10;;;;;;;10.70;3.90;;;;;;;25.46;42.27;100967.61;104277;1279;108232;-73
2022/07/20 08:05:38;;;;;;;10.60;4.20;;;;;;;25.54;43.34;100965.20;104174;1279;138363;-74
2022/07/20 08:08:09;;;;;;;13.00;4.30;;;;;;;25.63;43.36;100962.84;104264;1278;94501;-73
2022/07/20 08:10:39;;;;;;;9.50;4.00;;;;;;;25.78;42.20;100963.60;104296;1278;138631;-73
2022/07/20 08:13:08;;;;;;;9.40;4.10;;;;;;;25.87;43.12;100965.03;104233;1278;98362;-73
2022/07/20 08:15:37;;;;;;;10.40;3.90;;;;;;;25.93;42.87;100961.47;104420;1279;108774;-73
2022/07/20 08:18:06;;;;;;;11.10;3.70;;;;;;;25.96;42.11;100954.29;104127;1278;138763;-73
2022/07/20 08:20:34;;;;;;;9.80;3.60;;;;;;;26.00;42.20;100952.14;104406;1278;94315;-73
2022/07/20 08:23:02;;;;;;;9.90;4.00;;;;;;;26.06;41.41;100954.29;104141;1279;139083;-74
2022/07/20 08:25:30;;;;;;;7.20;3.70;;;;;;;26.14;42.87;100953.56;104185;1279;100043;-72
2022/07/20 08:28:14;;;;;;;8.40;3.80;;;;;;;26.21;42.48;100949.33;104185;1279;108989;-73
2022/07/20 08:30:44;;;;;;;8.80;3.90;;;;;;;26.32;43.30;100948.82;104641;1279;138512;-74
2022/07/20 08:33:22;;;;;;;8.50;3.80;;;;;;;26.46;41.90;100951.27;104241;1279;94328;-72
2022/07/20 08:35:51;;;;;;;7.90;3.80;;;;;;;26.59;41.43;100951.25;104127;1279;138665;-74
2022/07/20 08:38:19;;;;;;;8.60;4.10;;;;;;;26.71;41.62;100953.14;104187;1279;98462;-73
2022/07/20 08:40:48;;;;;;;9.60;3.60;;;;;;;26.83;40.55;100957.45;104162;1279;137983;-72
2022/07/20 08:43:17;;;;;;;7.50;3.80;;;;;;;26.97;40.26;100949.33;104358;1279;94324;-69
2022/07/20 08:45:47;;;;;;;7.60;3.60;;;;;;;27.09;40.16;100949.16;104674;1279;94318;-71
2022/07/20 08:48:18;;;;;;;9.00;3.70;;;;;;;27.22;40.31;100947.88;104152;1279;138501;-70
2022/07/20 08:50:48;;;;;;;8.30;3.90;;;;;;;27.30;39.75;100947.58;104977;1278;99427;-71
2022/07/20 08:53:18;;;;;;;8.50;3.90;;;;;;;27.39;39.70;100943.09;104124;1279;138346;-71
2022/07/20 08:55:47;;;;;;;8.80;3.90;;;;;;;27.53;40.00;100936.61;104248;1279;96126;-71
2022/07/20 08:58:15;;;;;;;8.20;3.80;;;;;;;27.76;40.06;100937.48;104276;1279;94303;-70
2022/07/20 09:00:44;;;;;;;7.80;3.70;;;;;;;27.94;39.77;100938.37;104097;1279;137961;-71
2022/07/20 09:03:12;;;;;;;8.80;3.90;;;;;;;28.00;39.29;100937.88;104175;1278;99519;-71
2022/07/20 09:05:41;;;;;;;9.60;4.10;;;;;;;28.16;39.32;100944.05;104130;1279;137719;-71
2022/07/20 09:08:14;;;;;;;8.50;3.90;;;;;;;28.34;39.45;100941.29;104280;1279;94327;-70
2022/07/20 09:10:46;;;;;;;7.60;3.60;;;;;;;28.46;38.44;100941.88;104106;1279;138783;-71
2022/07/20 09:13:18;;;;;;;7.80;3.40;;;;;;;28.57;38.11;100941.32;104454;1279;108583;-69
2022/07/20 09:15:52;;;;;;;7.40;3.30;;;;;;;28.72;37.83;100940.23;104235;1279;97425;-69
2022/07/20 09:18:26;;;;;;;9.40;4.20;;;;;;;28.88;37.56;100939.25;104326;1279;138381;-71
2022/07/20 09:20:56;;;;;;;7.70;3.60;;;;;;;28.96;37.19;100942.66;104243;1279;94230;-71
2022/07/20 09:23:27;;;;;;;9.80;4.00;;;;;;;29.17;37.75;100942.83;104327;1279;137965;-71
2022/07/20 09:25:57;;;;;;;7.30;3.60;;;;;;;29.33;37.41;100939.33;104684;1279;107837;-71
2022/07/20 09:28:35;;;;;;;9.80;4.10;;;;;;;29.47;36.89;100939.80;104313;1279;99347;-71
2022/07/20 09:31:10;;;;;;;8.10;3.90;;;;;;;29.69;37.61;100943.89;104304;1279;108337;-71
2022/07/20 09:33:39;;;;;;;9.70;3.60;;;;;;;29.85;36.95;100939.88;104294;1279;96246;-71
2022/07/20 09:36:07;;;;;;;7.50;3.60;;;;;;;30.17;36.45;100940.77;104253;1279;137940;-70
2022/07/20 09:38:39;;;;;;;7.80;3.90;;;;;;;31.12;35.33;100947.19;103948;1279;585114;-71
2022/07/20 09:41:22;;;;;;;7.70;3.50;;;;;;;32.30;33.92;100940.78;104365;1279;138853;-71
2022/07/20 09:43:51;;;;;;;7.70;3.70;;;;;;;33.52;30.79;100936.34;104401;1279;107825;-71
2022/07/20 09:46:27;;;;;;;6.20;3.20;;;;;;;34.34;29.49;100935.84;104612;1279;94461;-73
2022/07/20 09:48:58;;;;;;;6.40;3.40;;;;;;;35.28;28.85;100940.19;104366;1279;136855;-71
2022/07/20 09:51:32;;;;;;;8.10;3.10;;;;;;;36.19;27.43;100938.47;104316;1279;108334;-72
2022/07/20 09:54:09;;;;;;;6.90;3.20;;;;;;;36.94;26.52;100938.73;105735;1279;138167;-72
2022/07/20 09:56:44;;;;;;;5.80;2.80;;;;;;;37.75;25.48;100930.98;104328;1279;107874;-71
2022/07/20 09:59:13;;;;;;;6.80;3.10;;;;;;;38.48;24.39;100932.66;104214;1279;138808;-71
2022/07/20 10:01:45;;;;;;;7.80;3.00;;;;;;;39.00;23.59;100931.63;104357;1279;94394;-72
2022/07/20 10:04:14;;;;;;;6.80;3.20;;;;;;;39.39;23.46;100934.45;104501;1278;108451;-72
2022/07/20 10:06:45;;;;;;;6.60;3.10;;;;;;;39.93;23.00;100936.45;104227;1279;138111;-71
2022/07/20 10:09:15;;;;;;;6.20;3.00;;;;;;;40.41;22.43;100938.25;104239;1279;108861;-72
2022/07/20 10:11:45;;;;;;;5.90;2.80;;;;;;;40.85;22.05;100930.88;104102;1279;138262;-72
2022/07/20 10:14:17;;;;;;;7.10;3.20;;;;;;;40.91;21.98;100932.80;104360;1279;94310;-72
2022/07/20 10:16:49;;;;;;;6.10;3.20;;;;;;;41.42;21.67;100928.98;104174;1279;142034;-73
2022/07/20 10:19:20;;;;;;;6.80;3.10;;;;;;;41.93;20.75;100930.17;104225;1278;99606;-72
2022/07/20 10:21:53;;;;;;;6.80;3.00;;;;;;;42.38;19.94;100927.85;107271;1279;109053;-72
2022/07/20 10:24:29;;;;;;;6.90;2.90;;;;;;;42.41;19.27;100930.46;105779;1279;138356;-72
2022/07/20 10:27:16;;;;;;;5.90;2.90;;;;;;;42.54;19.11;100933.06;104330;1279;95670;-72
2022/07/20 10:29:49;;;;;;;4.90;3.00;;;;;;;42.68;19.30;100940.02;104144;1279;137980;-71
2022/07/20 10:33:56;;;;;;;5.90;2.90;;;;;;;42.95;19.41;100935.73;101045;1312;634990;-72
2022/07/20 10:36:43;;;;;;;6.50;2.70;;;;;;;43.34;19.29;100935.15;103093;1287;137627;-72
2022/07/20 10:39:45;;;;;;;5.20;2.80;;;;;;;43.30;19.06;100937.53;103110;1289;94316;-72
2022/07/20 10:42:34;;;;;;;5.60;2.80;;;;;;;43.67;18.81;100941.04;102591;1290;137319;-72
2022/07/20 10:45:19;;;;;;;7.50;3.10;;;;;;;43.28;18.20;100937.08;103048;1290;99468;-72
2022/07/20 10:47:48;;;;;;;6.20;3.10;;;;;;;42.73;18.88;100935.86;102837;1287;319769;-72
2022/07/20 10:50:40;;;;;;;6.40;3.30;;;;;;;42.85;19.30;100935.66;103288;1287;94768;-73
2022/07/20 10:53:11;;;;;;;5.20;2.60;;;;;;;43.28;18.16;100936.75;103116;1287;137387;-71
2022/07/20 10:55:42;;;;;;;5.50;2.60;;;;;;;43.49;18.24;100939.96;103248;1287;105678;-71
2022/07/20 10:58:16;;;;;;;5.50;2.70;;;;;;;43.65;17.81;100933.83;103296;1287;99591;-72
2022/07/20 11:00:46;;;;;;;6.80;2.90;;;;;;;43.67;17.50;100936.71;103085;1287;137351;-71
2022/07/20 11:03:19;;;;;;;8.00;3.10;;;;;;;43.52;17.81;100932.20;103185;1287;94715;-72
2022/07/20 11:05:58;;;;;;;6.40;2.90;;;;;;;43.41;18.29;100929.63;103117;1287;140847;-70
2022/07/20 11:08:26;;;;;;;5.90;2.90;;;;;;;42.58;18.90;100931.81;104372;1279;107006;-70
2022/07/20 11:10:55;;;;;;;7.00;3.00;;;;;;;41.10;19.94;100924.39;104123;1280;137758;-71
2022/07/20 11:13:23;;;;;;;5.80;2.90;;;;;;;39.95;21.72;100927.14;104137;1280;108172;-71
2022/07/20 11:15:54;;;;;;;7.20;3.10;;;;;;;39.25;21.48;100924.35;104175;1279;94348;-70
2022/07/20 11:18:31;;;;;;;7.20;3.10;;;;;;;38.61;22.56;100922.49;104115;1279;137502;-71
2022/07/20 11:21:00;;;;;;;6.70;3.00;;;;;;;37.94;23.47;100921.40;104354;1279;107152;-70
2022/07/20 11:23:48;;;;;;;6.40;2.60;;;;;;;37.51;23.73;100926.19;104104;1278;138049;-71
2022/07/20 11:26:19;;;;;;;5.70;2.80;;;;;;;36.93;24.39;100920.92;104317;1279;108895;-71
2022/07/20 11:28:50;;;;;;;5.70;2.40;;;;;;;36.42;24.98;100921.17;104481;1278;137818;-71